Time;durP1;ratioP1;P1;durP2;ratioP2;P2;SDS_P1;SDS_P2;PMS_P1;PMS_P2;Temp;Humidity;BMP_temperature;BMP_pressure;BME280_temperature;BME280_humidity;BME280_pressure;Samples;Min_cycle;Max_cycle;Signal;HPM_P1;HPM_P2
2022/08/01 00:00:34;;;;;;;15.27;7.20;;;;;;;;;;3332310;42;20093;-64
2022/08/01 00:03:00;;;;;;;14.48;7.40;;;;;;;;;;3332319;42;20099;-64
2022/08/01 00:05:26;;;;;;;15.93;6.70;;;;;;;;;;3332369;42;20090;-62
2022/08/01 00:07:52;;;;;;;11.77;6.65;;;;;;;;;;3332182;42;20212;-64
2022/08/01 00:10:19;;;;;;;12.40;7.13;;;;;;;;;;3332132;42;20575;-63
2022/08/01 00:12:45;;;;;;;13.60;6.53;;;;;;;;;;3332331;42;20105;-63
2022/08/01 00:15:13;;;;;;;11.95;6.50;;;;;;;;;;3324984;42;20096;-63
2022/08/01 00:17:39;;;;;;;15.10;6.88;;;;;;;;;;3325370;42;20559;-64
2022/08/01 00:20:07;;;;;;;12.85;6.43;;;;;;;;;;3333247;42;20097;-63
2022/08/01 00:22:34;;;;;;;13.18;6.95;;;;;;;;;;3325886;42;20089;-63
2022/08/01 00:25:00;;;;;;;11.57;6.67;;;;;;;;;;3318571;42;20096;-63
2022/08/01 00:27:27;;;;;;;11.88;6.57;;;;;;;;;;3333140;42;20081;-64
2022/08/01 00:29:53;;;;;;;12.30;7.32;;;;;;;;;;3333079;42;20441;-63
2022/08/01 00:32:19;;;;;;;12.80;6.65;;;;;;;;;;3333134;42;20081;-66
2022/08/01 00:34:45;;;;;;;14.57;6.85;;;;;;;;;;3325571;42;20093;-63
2022/08/01 00:37:11;;;;;;;11.73;6.73;;;;;;;;;;3340697;42;20148;-65
2022/08/01 00:39:37;;;;;;;13.68;7.28;;;;;;;;;;3325728;42;20177;-64
2022/08/01 00:42:08;;;;;;;15.10;6.90;;;;;;;;;;3332948;42;20089;-62
2022/08/01 00:44:34;;;;;;;12.95;7.03;;;;;;;;;;3326065;42;20089;-64
2022/08/01 00:47:01;;;;;;;12.30;6.90;;;;;;;;;;3325215;42;20175;-63
2022/08/01 00:49:27;;;;;;;12.33;6.80;;;;;;;;;;3324995;42;20359;-62
2022/08/01 00:51:54;;;;;;;13.10;6.22;;;;;;;;;;3324696;42;20089;-62
2022/08/01 00:54:20;;;;;;;12.73;6.40;;;;;;;;;;3332116;42;20097;-62
2022/08/01 00:56:47;;;;;;;12.05;6.70;;;;;;;;;;3332217;42;20153;-62
2022/08/01 00:59:13;;;;;;;13.23;6.43;;;;;;;;;;3324755;42;20100;-62
2022/08/01 01:01:39;;;;;;;14.20;6.50;;;;;;;;;;3317759;42;20159;-63
2022/08/01 01:04:05;;;;;;;13.90;6.32;;;;;;;;;;3331995;42;20089;-62
2022/08/01 01:06:37;;;;;;;11.50;6.30;;;;;;;;;;3324535;42;20092;-62
2022/08/01 01:09:37;;;;;;;12.18;6.40;;;;;;;;;;3331493;42;20104;-63
2022/08/01 01:12:28;;;;;;;11.93;6.18;;;;;;;;;;3324438;42;20550;-63
2022/08/01 01:15:07;;;;;;;10.33;5.47;;;;;;;;;;3331751;42;20157;-64
2022/08/01 01:17:55;;;;;;;11.93;6.00;;;;;;;;;;3317473;42;20213;-62
2022/08/01 01:20:23;;;;;;;10.57;5.80;;;;;;;;;;3324648;42;20092;-62
2022/08/01 01:22:53;;;;;;;10.98;5.57;;;;;;;;;;3331969;42;20560;-62
2022/08/01 01:25:37;;;;;;;10.70;5.53;;;;;;;;;;3332589;42;20097;-62
2022/08/01 01:28:22;;;;;;;12.53;5.97;;;;;;;;;;3331407;42;20089;-62
2022/08/01 01:30:50;;;;;;;10.63;5.80;;;;;;;;;;3331636;42;20870;-63
2022/08/01 01:33:17;;;;;;;12.65;5.80;;;;;;;;;;3316833;42;20088;-63
2022/08/01 01:35:46;;;;;;;12.32;6.00;;;;;;;;;;3324851;42;20097;-63
2022/08/01 01:38:17;;;;;;;11.45;5.63;;;;;;;;;;3324478;42;20097;-63
2022/08/01 01:40:43;;;;;;;13.40;5.90;;;;;;;;;;3317176;42;20097;-62
2022/08/01 01:43:10;;;;;;;12.07;6.07;;;;;;;;;;3317080;42;20085;-63
2022/08/01 01:45:36;;;;;;;12.05;6.28;;;;;;;;;;3317167;42;20140;-62
2022/08/01 01:48:03;;;;;;;10.80;5.85;;;;;;;;;;3324230;42;20563;-63
2022/08/01 01:50:29;;;;;;;11.77;5.97;;;;;;;;;;3316967;42;20100;-62
2022/08/01 01:52:55;;;;;;;10.07;5.43;;;;;;;;;;3317291;42;20161;-62
2022/08/01 01:55:22;;;;;;;11.43;5.47;;;;;;;;;;3316674;42;20510;-62
2022/08/01 01:57:48;;;;;;;10.38;5.57;;;;;;;;;;3316973;42;20089;-63
2022/08/01 02:00:15;;;;;;;12.88;5.28;;;;;;;;;;3324151;42;20157;-62
2022/08/01 02:02:42;;;;;;;11.30;5.85;;;;;;;;;;3324305;42;20148;-63
2022/08/01 02:05:09;;;;;;;10.13;5.23;;;;;;;;;;3324054;42;20100;-64
2022/08/01 02:07:36;;;;;;;10.32;5.25;;;;;;;;;;3338896;42;20085;-62
2022/08/01 02:10:02;;;;;;;12.93;5.70;;;;;;;;;;3324078;42;20101;-63
2022/08/01 02:12:29;;;;;;;14.13;5.78;;;;;;;;;;3331408;42;20091;-62
2022/08/01 02:14:55;;;;;;;9.70;5.07;;;;;;;;;;3331744;42;20124;-62
2022/08/01 02:17:22;;;;;;;9.87;5.47;;;;;;;;;;3316859;42;20101;-63
2022/08/01 02:19:48;;;;;;;11.30;5.35;;;;;;;;;;3324019;42;20101;-62
2022/08/01 02:22:20;;;;;;;11.50;4.97;;;;;;;;;;3316924;42;20089;-61
2022/08/01 02:24:57;;;;;;;9.05;5.00;;;;;;;;;;3331443;42;20093;-62
2022/08/01 02:27:43;;;;;;;9.20;4.88;;;;;;;;;;3316831;42;20586;-63
2022/08/01 02:30:10;;;;;;;10.13;4.90;;;;;;;;;;3323977;42;20568;-65
2022/08/01 02:33:01;;;;;;;9.27;5.07;;;;;;;;;;3324091;42;20096;-62
2022/08/01 02:35:29;;;;;;;10.55;4.75;;;;;;;;;;3320047;42;20097;-63
2022/08/01 02:37:56;;;;;;;9.75;4.75;;;;;;;;;;3324114;42;20120;-62
2022/08/01 02:40:22;;;;;;;8.77;4.50;;;;;;;;;;3324000;42;20518;-62
2022/08/01 02:42:50;;;;;;;9.00;5.07;;;;;;;;;;3324239;42;20104;-63
2022/08/01 02:45:21;;;;;;;11.10;5.32;;;;;;;;;;3323766;42;20105;-62
2022/08/01 02:47:48;;;;;;;8.80;5.05;;;;;;;;;;3323679;42;20629;-62
2022/08/01 02:50:14;;;;;;;11.13;4.80;;;;;;;;;;3323548;42;20104;-63
2022/08/01 02:52:40;;;;;;;11.10;5.18;;;;;;;;;;3317336;42;20221;-62
2022/08/01 02:55:07;;;;;;;10.50;5.07;;;;;;;;;;3317407;42;20093;-62
2022/08/01 02:57:33;;;;;;;8.57;4.60;;;;;;;;;;3324257;42;20559;-62
2022/08/01 02:59:59;;;;;;;8.25;4.50;;;;;;;;;;3316746;42;20097;-62
2022/08/01 03:02:25;;;;;;;10.05;4.70;;;;;;;;;;3323998;42;20093;-62
2022/08/01 03:04:52;;;;;;;8.13;4.68;;;;;;;;;;3324339;42;20662;-62
2022/08/01 03:07:18;;;;;;;9.53;4.90;;;;;;;;;;3323981;42;20105;-62
2022/08/01 03:09:45;;;;;;;9.38;4.95;;;;;;;;;;3316721;42;20602;-63
2022/08/01 03:12:18;;;;;;;9.57;5.00;;;;;;;;;;3323782;42;20128;-62
2022/08/01 03:14:44;;;;;;;9.30;4.55;;;;;;;;;;3323968;42;20089;-63
2022/08/01 03:17:11;;;;;;;8.45;5.03;;;;;;;;;;3323789;42;20112;-62
2022/08/01 03:19:38;;;;;;;13.33;5.70;;;;;;;;;;3324019;42;20498;-61
2022/08/01 03:22:09;;;;;;;8.80;4.72;;;;;;;;;;3323762;42;20089;-61
2022/08/01 03:24:37;;;;;;;9.65;5.20;;;;;;;;;;3331110;42;20101;-62
2022/08/01 03:27:03;;;;;;;10.88;5.07;;;;;;;;;;3323470;42;20203;-62
2022/08/01 03:29:30;;;;;;;11.15;6.03;;;;;;;;;;3323054;42;20096;-63
2022/08/01 03:31:56;;;;;;;10.37;5.40;;;;;;;;;;3316833;42;20630;-63
2022/08/01 03:34:22;;;;;;;9.68;5.00;;;;;;;;;;3331439;42;20099;-62
2022/08/01 03:36:54;;;;;;;9.70;5.25;;;;;;;;;;3332305;42;20157;-62
2022/08/01 03:39:20;;;;;;;11.68;5.40;;;;;;;;;;3325901;42;20093;-62
2022/08/01 03:41:54;;;;;;;9.35;5.35;;;;;;;;;;3332664;42;20562;-62
2022/08/01 03:44:23;;;;;;;9.80;5.17;;;;;;;;;;3331947;42;20089;-56
2022/08/01 03:46:52;;;;;;;11.55;5.55;;;;;;;;;;3325566;42;20519;-57
2022/08/01 03:49:23;;;;;;;9.68;5.68;;;;;;;;;;3325398;42;20476;-56
2022/08/01 03:51:50;;;;;;;11.82;5.93;;;;;;;;;;3325852;42;20104;-57
2022/08/01 03:54:19;;;;;;;11.65;6.13;;;;;;;;;;3332489;42;20148;-58
2022/08/01 03:56:46;;;;;;;11.13;6.10;;;;;;;;;;3325496;42;20224;-58
2022/08/01 03:59:12;;;;;;;10.48;5.60;;;;;;;;;;3325204;42;20212;-57
2022/08/01 04:01:38;;;;;;;10.40;6.30;;;;;;;;;;3318153;42;20120;-57
2022/08/01 04:04:05;;;;;;;11.80;6.03;;;;;;;;;;3325380;42;20156;-57
2022/08/01 04:06:31;;;;;;;14.75;6.75;;;;;;;;;;3325346;42;20097;-58
2022/08/01 04:08:58;;;;;;;10.73;5.80;;;;;;;;;;3324869;42;20096;-58
2022/08/01 04:11:24;;;;;;;11.02;5.68;;;;;;;;;;3332072;42;20148;-59
2022/08/01 04:13:52;;;;;;;10.40;5.53;;;;;;;;;;3325043;42;20112;-59
2022/08/01 04:16:19;;;;;;;11.65;6.40;;;;;;;;;;3339666;42;20920;-59
2022/08/01 04:18:46;;;;;;;13.52;6.88;;;;;;;;;;3325282;42;20591;-56
2022/08/01 04:21:13;;;;;;;12.77;5.60;;;;;;;;;;3332349;42;20111;-58
2022/08/01 04:23:40;;;;;;;11.43;6.38;;;;;;;;;;3332195;42;20097;-59
2022/08/01 04:26:06;;;;;;;11.52;5.93;;;;;;;;;;3324931;42;20112;-58
2022/08/01 04:28:34;;;;;;;11.23;5.85;;;;;;;;;;3324941;42;20156;-58
2022/08/01 04:31:00;;;;;;;12.02;6.10;;;;;;;;;;3317655;42;20152;-57
2022/08/01 04:33:26;;;;;;;11.67;5.77;;;;;;;;;;3335222;42;20103;-58
2022/08/01 04:35:52;;;;;;;11.15;6.00;;;;;;;;;;3326475;42;20874;-58
2022/08/01 04:38:21;;;;;;;12.30;6.22;;;;;;;;;;3329456;42;20097;-58
2022/08/01 04:40:47;;;;;;;10.32;6.28;;;;;;;;;;3317981;42;20097;-58
2022/08/01 04:43:13;;;;;;;12.05;5.97;;;;;;;;;;3324205;42;20651;-58
2022/08/01 04:45:40;;;;;;;9.40;5.77;;;;;;;;;;3324867;42;20148;-60
2022/08/01 04:48:08;;;;;;;10.82;6.18;;;;;;;;;;3319341;42;20575;-57
2022/08/01 04:50:36;;;;;;;11.95;5.63;;;;;;;;;;3326556;42;20089;-58
2022/08/01 04:53:02;;;;;;;11.88;5.70;;;;;;;;;;3348316;42;20603;-57
2022/08/01 04:55:29;;;;;;;10.40;5.80;;;;;;;;;;3332771;42;20156;-59
2022/08/01 04:57:57;;;;;;;10.07;5.43;;;;;;;;;;3345112;42;20114;-58
2022/08/01 05:00:23;;;;;;;11.15;5.85;;;;;;;;;;3333560;42;20510;-56
2022/08/01 05:02:49;;;;;;;11.32;5.93;;;;;;;;;;3332202;42;20111;-57
2022/08/01 05:05:16;;;;;;;12.23;6.30;;;;;;;;;;3327692;42;20089;-57
2022/08/01 05:07:42;;;;;;;9.93;5.80;;;;;;;;;;3332068;42;20567;-57
2022/08/01 05:10:08;;;;;;;10.57;5.77;;;;;;;;;;3325105;42;20104;-60
2022/08/01 05:12:35;;;;;;;14.93;6.30;;;;;;;;;;3332104;42;20093;-57
2022/08/01 05:15:02;;;;;;;15.45;6.32;;;;;;;;;;3340060;42;20096;-57
2022/08/01 05:17:28;;;;;;;12.35;5.78;;;;;;;;;;3332106;42;20085;-57
2022/08/01 05:19:54;;;;;;;11.32;5.90;;;;;;;;;;3333700;42;20093;-58
2022/08/01 05:22:20;;;;;;;11.33;6.37;;;;;;;;;;3334834;42;20228;-58
2022/08/01 05:24:47;;;;;;;12.75;6.60;;;;;;;;;;3333675;42;20099;-59
2022/08/01 05:27:13;;;;;;;9.98;6.40;;;;;;;;;;3333491;42;20154;-58
2022/08/01 05:29:39;;;;;;;12.73;5.80;;;;;;;;;;3336324;42;20563;-57
2022/08/01 05:32:06;;;;;;;14.55;6.68;;;;;;;;;;3325051;42;20917;-58
2022/08/01 05:34:32;;;;;;;10.23;6.10;;;;;;;;;;3340828;42;20097;-58
2022/08/01 05:36:58;;;;;;;14.73;6.18;;;;;;;;;;3340763;42;20589;-57
2022/08/01 05:39:25;;;;;;;12.48;6.38;;;;;;;;;;3333462;42;20139;-58
2022/08/01 05:41:51;;;;;;;11.00;6.70;;;;;;;;;;3333330;42;20096;-57
2022/08/01 05:44:17;;;;;;;13.32;7.03;;;;;;;;;;3333390;42;20089;-57
2022/08/01 05:46:43;;;;;;;12.33;6.10;;;;;;;;;;3332437;42;20156;-58
2022/08/01 05:49:09;;;;;;;10.38;6.65;;;;;;;;;;3335831;42;20140;-57
2022/08/01 05:51:36;;;;;;;11.95;6.70;;;;;;;;;;3332602;42;20577;-56
2022/08/01 05:54:02;;;;;;;9.60;6.40;;;;;;;;;;3332375;42;20104;-58
2022/08/01 05:56:28;;;;;;;11.20;6.60;;;;;;;;;;3328151;42;20097;-57
2022/08/01 05:58:55;;;;;;;11.43;6.60;;;;;;;;;;3338062;42;20119;-61
2022/08/01 06:01:21;;;;;;;12.75;6.40;;;;;;;;;;3333032;42;20641;-58
2022/08/01 06:03:47;;;;;;;10.75;6.60;;;;;;;;;;3333532;42;20460;-56
2022/08/01 06:06:16;;;;;;;11.48;6.50;;;;;;;;;;3333986;42;20093;-59
2022/08/01 06:08:42;;;;;;;13.85;6.40;;;;;;;;;;3325163;42;20097;-57
2022/08/01 06:11:08;;;;;;;15.90;6.40;;;;;;;;;;3324531;42;20108;-56
2022/08/01 06:13:35;;;;;;;12.10;6.72;;;;;;;;;;3324325;42;20108;-58
2022/08/01 06:16:01;;;;;;;12.57;7.00;;;;;;;;;;3323953;42;20100;-58
2022/08/01 06:18:27;;;;;;;9.65;6.35;;;;;;;;;;3324207;42;20089;-57
2022/08/01 06:20:53;;;;;;;10.75;6.30;;;;;;;;;;3328981;42;20096;-57
2022/08/01 06:23:20;;;;;;;11.73;6.70;;;;;;;;;;3324977;42;20085;-58
2022/08/01 06:25:47;;;;;;;11.10;6.40;;;;;;;;;;3323770;42;20598;-58
2022/08/01 06:28:13;;;;;;;12.15;6.47;;;;;;;;;;3323951;42;20088;-55
2022/08/01 06:30:39;;;;;;;12.35;6.10;;;;;;;;;;3324113;42;20104;-58
2022/08/01 06:33:05;;;;;;;14.95;6.32;;;;;;;;;;3331310;42;20140;-57
2022/08/01 06:35:32;;;;;;;11.80;6.60;;;;;;;;;;3323719;42;20176;-55
2022/08/01 06:37:58;;;;;;;11.10;6.35;;;;;;;;;;3323816;42;20511;-57
2022/08/01 06:40:24;;;;;;;10.60;6.57;;;;;;;;;;3323387;42;20526;-56
2022/08/01 06:42:50;;;;;;;14.05;6.40;;;;;;;;;;3324197;42;20220;-58
2022/08/01 06:45:16;;;;;;;14.43;7.00;;;;;;;;;;3330782;42;20595;-58
2022/08/01 06:47:43;;;;;;;12.37;6.33;;;;;;;;;;3324032;42;20559;-58
2022/08/01 06:50:10;;;;;;;12.85;6.93;;;;;;;;;;3323730;42;20108;-58
2022/08/01 06:52:36;;;;;;;11.60;7.00;;;;;;;;;;3323835;42;20172;-58
2022/08/01 06:55:03;;;;;;;12.07;6.93;;;;;;;;;;3326193;42;20089;-57
2022/08/01 06:57:29;;;;;;;13.80;7.50;;;;;;;;;;3331271;42;20172;-58
2022/08/01 06:59:55;;;;;;;14.63;7.80;;;;;;;;;;3331176;42;20101;-56
2022/08/01 07:02:22;;;;;;;13.82;7.78;;;;;;;;;;3331041;42;20184;-57
2022/08/01 07:04:48;;;;;;;13.00;7.57;;;;;;;;;;3324049;42;20128;-56
2022/08/01 07:07:14;;;;;;;14.60;7.97;;;;;;;;;;3325425;42;20097;-55
2022/08/01 07:09:42;;;;;;;13.95;8.18;;;;;;;;;;3332882;42;20144;-58
2022/08/01 07:12:08;;;;;;;12.47;7.37;;;;;;;;;;3332867;42;20188;-61
2022/08/01 07:14:34;;;;;;;11.95;7.53;;;;;;;;;;3332948;42;20097;-58
2022/08/01 07:17:01;;;;;;;12.93;7.65;;;;;;;;;;3325701;42;20143;-57
2022/08/01 07:19:27;;;;;;;14.27;8.13;;;;;;;;;;3332758;42;20136;-56
2022/08/01 07:21:53;;;;;;;14.07;7.55;;;;;;;;;;3340312;42;20132;-57
2022/08/01 07:24:20;;;;;;;12.80;7.00;;;;;;;;;;3333891;42;20127;-56
2022/08/01 07:26:46;;;;;;;11.43;6.95;;;;;;;;;;3333693;42;20101;-55
2022/08/01 07:29:13;;;;;;;12.52;6.88;;;;;;;;;;3334016;42;20097;-58
2022/08/01 07:31:39;;;;;;;13.07;7.47;;;;;;;;;;3325620;42;20104;-57
2022/08/01 07:34:05;;;;;;;16.77;7.55;;;;;;;;;;3325427;42;20107;-57
2022/08/01 07:36:32;;;;;;;11.07;7.43;;;;;;;;;;3325197;42;20570;-57
2022/08/01 07:38:58;;;;;;;14.68;7.75;;;;;;;;;;3332098;42;20093;-56
2022/08/01 07:41:24;;;;;;;12.88;7.63;;;;;;;;;;3324680;42;20101;-57
2022/08/01 07:43:50;;;;;;;12.35;7.30;;;;;;;;;;3332980;42;20097;-57
2022/08/01 07:46:16;;;;;;;13.15;7.70;;;;;;;;;;3325897;42;20101;-57
2022/08/01 07:48:43;;;;;;;14.33;7.67;;;;;;;;;;3332742;42;20101;-56
2022/08/01 07:51:10;;;;;;;13.90;7.18;;;;;;;;;;3332719;42;20112;-57
2022/08/01 07:53:36;;;;;;;14.32;7.93;;;;;;;;;;3332297;42;20122;-56
2022/08/01 07:56:05;;;;;;;14.68;7.25;;;;;;;;;;3318394;42;20668;-58
2022/08/01 07:58:32;;;;;;;13.07;7.35;;;;;;;;;;3332871;42;20085;-58
2022/08/01 08:00:58;;;;;;;11.57;6.87;;;;;;;;;;3336257;42;20104;-58
2022/08/01 08:03:25;;;;;;;12.75;7.25;;;;;;;;;;3332153;42;20101;-58
2022/08/01 08:05:51;;;;;;;11.23;6.90;;;;;;;;;;3332339;42;20089;-58
2022/08/01 08:08:18;;;;;;;10.65;6.65;;;;;;;;;;3324732;42;20148;-56
2022/08/01 08:10:44;;;;;;;11.73;6.68;;;;;;;;;;3331979;42;20100;-57
2022/08/01 08:13:10;;;;;;;12.47;6.40;;;;;;;;;;3328030;42;20089;-58
2022/08/01 08:15:36;;;;;;;15.00;7.00;;;;;;;;;;3332940;42;20483;-59
2022/08/01 08:18:05;;;;;;;14.70;7.10;;;;;;;;;;3333441;42;20101;-56
2022/08/01 08:20:32;;;;;;;11.57;6.72;;;;;;;;;;3333340;42;20092;-57
2022/08/01 08:22:58;;;;;;;12.20;7.03;;;;;;;;;;3333503;42;20097;-57
2022/08/01 08:25:25;;;;;;;12.10;6.70;;;;;;;;;;3333267;42;20088;-59
2022/08/01 08:27:51;;;;;;;12.38;6.55;;;;;;;;;;3326163;42;20100;-57
2022/08/01 08:30:18;;;;;;;13.55;6.97;;;;;;;;;;3333256;42;20107;-60
2022/08/01 08:32:44;;;;;;;13.63;6.50;;;;;;;;;;3333579;42;20100;-58
2022/08/01 08:35:10;;;;;;;10.00;6.13;;;;;;;;;;3326101;42;20571;-60
2022/08/01 08:37:37;;;;;;;10.27;6.07;;;;;;;;;;3326351;42;20216;-58
2022/08/01 08:40:04;;;;;;;12.43;6.65;;;;;;;;;;3340511;42;20143;-57
2022/08/01 08:42:30;;;;;;;16.08;6.80;;;;;;;;;;3333461;42;20116;-58
2022/08/01 08:44:56;;;;;;;13.48;6.97;;;;;;;;;;3333478;42;20140;-59
2022/08/01 08:47:22;;;;;;;14.65;6.50;;;;;;;;;;3333469;42;20557;-56
2022/08/01 08:49:54;;;;;;;15.27;6.73;;;;;;;;;;3326345;42;20258;-58
2022/08/01 08:52:21;;;;;;;13.85;6.65;;;;;;;;;;3329329;42;20955;-58
2022/08/01 08:54:48;;;;;;;15.18;6.97;;;;;;;;;;3339999;42;20092;-58
2022/08/01 08:57:14;;;;;;;13.07;6.43;;;;;;;;;;3331726;42;20088;-58
2022/08/01 08:59:42;;;;;;;13.68;7.35;;;;;;;;;;3331750;42;20093;-58
2022/08/01 09:02:09;;;;;;;11.33;6.30;;;;;;;;;;3331897;42;20085;-57
2022/08/01 09:04:36;;;;;;;11.70;6.35;;;;;;;;;;3328979;42;20219;-58
2022/08/01 09:07:03;;;;;;;16.10;6.25;;;;;;;;;;3317165;42;20127;-59
2022/08/01 09:09:30;;;;;;;10.45;5.72;;;;;;;;;;3332025;42;20123;-57
2022/08/01 09:11:56;;;;;;;10.40;5.85;;;;;;;;;;3333399;42;20088;-57
2022/08/01 09:14:31;;;;;;;13.43;6.47;;;;;;;;;;3333045;42;20092;-59
2022/08/01 09:17:01;;;;;;;11.45;6.10;;;;;;;;;;3333820;42;20630;-60
2022/08/01 09:19:35;;;;;;;12.82;6.05;;;;;;;;;;3334361;42;20187;-58
2022/08/01 09:22:03;;;;;;;10.73;6.03;;;;;;;;;;3332423;42;20095;-58
2022/08/01 09:24:30;;;;;;;14.48;6.68;;;;;;;;;;3326395;42;20089;-58
2022/08/01 09:26:56;;;;;;;10.07;5.97;;;;;;;;;;3327998;42;20115;-58
2022/08/01 09:29:25;;;;;;;13.23;5.88;;;;;;;;;;3323664;42;20104;-60
2022/08/01 09:31:51;;;;;;;11.60;6.78;;;;;;;;;;3317084;42;20089;-58
2022/08/01 09:34:25;;;;;;;10.73;5.60;;;;;;;;;;3331151;42;20155;-55
2022/08/01 09:36:56;;;;;;;10.02;6.05;;;;;;;;;;3331725;42;20100;-58
2022/08/01 09:39:29;;;;;;;11.63;5.97;;;;;;;;;;3317082;42;20092;-57
2022/08/01 09:41:57;;;;;;;9.80;5.30;;;;;;;;;;3324368;42;20168;-58
2022/08/01 09:44:39;;;;;;;16.90;6.13;;;;;;;;;;3324553;42;20100;-56
2022/08/01 09:47:06;;;;;;;11.45;5.88;;;;;;;;;;3331416;42;20152;-61
2022/08/01 09:49:34;;;;;;;10.07;6.15;;;;;;;;;;3331545;42;20085;-56
2022/08/01 09:52:16;;;;;;;12.23;6.13;;;;;;;;;;3324107;42;20097;-57
2022/08/01 09:54:44;;;;;;;10.65;5.80;;;;;;;;;;3320875;42;20081;-58
2022/08/01 09:57:15;;;;;;;13.15;5.82;;;;;;;;;;3324050;42;20097;-60
2022/08/01 09:59:50;;;;;;;11.52;6.10;;;;;;;;;;3329248;42;20085;-58
2022/08/01 10:02:31;;;;;;;13.80;6.05;;;;;;;;;;3339932;42;20096;-58
2022/08/01 10:04:57;;;;;;;14.40;6.50;;;;;;;;;;3340214;42;20104;-60
2022/08/01 10:07:23;;;;;;;11.95;6.22;;;;;;;;;;3325376;42;20167;-59
2022/08/01 10:09:50;;;;;;;12.25;6.47;;;;;;;;;;3325776;42;20104;-59
2022/08/01 10:12:18;;;;;;;13.20;6.18;;;;;;;;;;3332261;42;20199;-56
2022/08/01 10:14:46;;;;;;;15.27;6.60;;;;;;;;;;3342641;42;20093;-58
2022/08/01 10:17:13;;;;;;;13.23;6.63;;;;;;;;;;3332695;42;20097;-57
2022/08/01 10:19:41;;;;;;;12.43;6.40;;;;;;;;;;3332452;42;20093;-57
2022/08/01 10:22:08;;;;;;;15.88;6.53;;;;;;;;;;3334217;42;20093;-58
2022/08/01 10:24:36;;;;;;;14.32;6.28;;;;;;;;;;3332908;42;20147;-57
2022/08/01 10:27:06;;;;;;;12.57;6.70;;;;;;;;;;3325570;42;20089;-57
2022/08/01 10:29:37;;;;;;;16.63;6.87;;;;;;;;;;3335374;42;20595;-57
2022/08/01 10:32:05;;;;;;;11.15;6.25;;;;;;;;;;3335170;42;20093;-58
2022/08/01 10:34:31;;;;;;;14.35;6.85;;;;;;;;;;3329385;42;20123;-58
2022/08/01 10:36:58;;;;;;;15.57;6.63;;;;;;;;;;3325891;42;20100;-57
2022/08/01 10:39:26;;;;;;;14.05;6.72;;;;;;;;;;3332104;42;20627;-57
2022/08/01 10:41:52;;;;;;;11.73;6.33;;;;;;;;;;3326627;42;20085;-58
2022/08/01 10:44:18;;;;;;;14.30;6.75;;;;;;;;;;3319677;42;20574;-57
2022/08/01 10:46:46;;;;;;;15.25;7.03;;;;;;;;;;3320008;42;20835;-57
2022/08/01 10:49:14;;;;;;;11.52;6.30;;;;;;;;;;3330579;42;20104;-56
2022/08/01 10:51:40;;;;;;;12.75;6.43;;;;;;;;;;3327055;42;20104;-58
2022/08/01 10:54:07;;;;;;;10.83;6.17;;;;;;;;;;3334354;42;20085;-57
2022/08/01 10:56:56;;;;;;;13.30;6.10;;;;;;;;;;3326642;42;20089;-57
2022/08/01 10:59:26;;;;;;;11.05;6.05;;;;;;;;;;3327095;42;20164;-58
2022/08/01 11:02:00;;;;;;;12.10;6.07;;;;;;;;;;3348197;42;20501;-56
2022/08/01 11:04:57;;;;;;;19.25;6.97;;;;;;;;;;3334260;42;20085;-57
2022/08/01 11:07:24;;;;;;;14.10;6.23;;;;;;;;;;3331483;42;20147;-57
2022/08/01 11:10:40;;;;;;;11.00;5.88;;;;;;;;;;3326010;42;20093;-57
2022/08/01 11:13:11;;;;;;;13.50;6.53;;;;;;;;;;3334032;42;20198;-57
2022/08/01 11:15:37;;;;;;;12.40;6.20;;;;;;;;;;3339688;42;20104;-58
2022/08/01 11:18:27;;;;;;;13.52;6.30;;;;;;;;;;3340188;42;20153;-58
2022/08/01 11:20:58;;;;;;;13.03;6.20;;;;;;;;;;3332705;42;20109;-57
2022/08/01 11:23:25;;;;;;;11.65;6.05;;;;;;;;;;3328990;42;20108;-57
2022/08/01 11:25:52;;;;;;;12.88;6.40;;;;;;;;;;3332341;42;20093;-57
2022/08/01 11:28:19;;;;;;;11.05;6.50;;;;;;;;;;3325904;42;20108;-57
2022/08/01 11:30:46;;;;;;;11.95;6.47;;;;;;;;;;3332732;42;20147;-57
2022/08/01 11:33:13;;;;;;;12.37;6.20;;;;;;;;;;3324636;42;20595;-58
2022/08/01 11:36:11;;;;;;;16.98;6.57;;;;;;;;;;3334275;42;20873;-60
2022/08/01 11:38:47;;;;;;;11.65;6.38;;;;;;;;;;3320129;42;20082;-57
2022/08/01 11:41:25;;;;;;;13.30;6.32;;;;;;;;;;3327686;42;20077;-58
2022/08/01 11:44:04;;;;;;;12.90;6.53;;;;;;;;;;3330484;42;20740;-58
2022/08/01 11:46:55;;;;;;;12.90;6.27;;;;;;;;;;3328990;42;20089;-58
2022/08/01 11:49:36;;;;;;;11.32;6.28;;;;;;;;;;3334457;42;20093;-58
2022/08/01 11:52:27;;;;;;;13.63;6.10;;;;;;;;;;3327853;42;20555;-60
2022/08/01 11:54:57;;;;;;;11.02;5.88;;;;;;;;;;3328276;42;20186;-60
2022/08/01 11:57:26;;;;;;;12.80;6.38;;;;;;;;;;3326517;42;20089;-61
2022/08/01 11:59:54;;;;;;;11.03;5.73;;;;;;;;;;3328522;42;20089;-60
2022/08/01 12:02:24;;;;;;;13.50;5.60;;;;;;;;;;3334701;42;20081;-57
2022/08/01 12:04:52;;;;;;;11.90;5.90;;;;;;;;;;3328090;42;20120;-60
2022/08/01 12:07:18;;;;;;;9.60;5.10;;;;;;;;;;3330510;42;20103;-60
2022/08/01 12:09:46;;;;;;;10.48;6.00;;;;;;;;;;3330925;42;20093;-60
2022/08/01 12:12:16;;;;;;;9.07;5.17;;;;;;;;;;3322012;42;20538;-59
2022/08/01 12:14:42;;;;;;;12.10;5.57;;;;;;;;;;3341098;42;20096;-59
2022/08/01 12:17:09;;;;;;;11.90;6.15;;;;;;;;;;3329161;42;20560;-60
2022/08/01 12:19:36;;;;;;;14.43;6.35;;;;;;;;;;3333583;42;20564;-59
2022/08/01 12:22:12;;;;;;;17.33;6.15;;;;;;;;;;3333457;42;20159;-59
2022/08/01 12:24:39;;;;;;;11.13;5.63;;;;;;;;;;3332306;42;20563;-59
2022/08/01 12:27:06;;;;;;;11.98;6.63;;;;;;;;;;3332778;42;20136;-59
2022/08/01 12:29:40;;;;;;;11.18;6.13;;;;;;;;;;3332513;42;20119;-60
2022/08/01 12:32:22;;;;;;;10.32;5.70;;;;;;;;;;3340238;42;20802;-59
2022/08/01 12:34:49;;;;;;;11.73;6.00;;;;;;;;;;3333219;42;20097;-60
2022/08/01 12:37:15;;;;;;;12.53;5.90;;;;;;;;;;3330638;42;20097;-59
2022/08/01 12:39:42;;;;;;;15.40;5.68;;;;;;;;;;3324797;42;20081;-59
2022/08/01 12:42:10;;;;;;;12.65;5.20;;;;;;;;;;3339297;42;20093;-60
2022/08/01 12:44:36;;;;;;;14.35;5.53;;;;;;;;;;3331729;42;20724;-57
2022/08/01 12:47:06;;;;;;;16.45;6.25;;;;;;;;;;3338517;42;20097;-60
2022/08/01 12:49:35;;;;;;;13.40;6.03;;;;;;;;;;3331297;42;20796;-59
2022/08/01 12:52:02;;;;;;;12.65;6.15;;;;;;;;;;3324411;42;20196;-58
2022/08/01 12:54:28;;;;;;;12.95;5.50;;;;;;;;;;3332949;42;20088;-59
2022/08/01 12:56:54;;;;;;;10.30;5.50;;;;;;;;;;3339838;42;20140;-57
2022/08/01 12:59:24;;;;;;;11.30;5.90;;;;;;;;;;3329362;42;20103;-58
2022/08/01 13:01:54;;;;;;;12.60;6.10;;;;;;;;;;3325939;42;20102;-59
2022/08/01 13:04:23;;;;;;;11.88;5.70;;;;;;;;;;3324670;42;20183;-58
2022/08/01 13:06:53;;;;;;;11.98;6.45;;;;;;;;;;3332955;42;20544;-58
2022/08/01 13:09:19;;;;;;;11.82;6.20;;;;;;;;;;3332517;42;20088;-60
2022/08/01 13:11:47;;;;;;;13.02;6.55;;;;;;;;;;3332079;42;20530;-58
2022/08/01 13:14:28;;;;;;;12.27;6.30;;;;;;;;;;3332833;42;20080;-58
2022/08/01 13:16:54;;;;;;;13.75;6.30;;;;;;;;;;3340316;42;20080;-59
2022/08/01 13:19:21;;;;;;;11.52;5.95;;;;;;;;;;3332363;42;20124;-58
2022/08/01 13:21:54;;;;;;;10.98;5.22;;;;;;;;;;3340147;42;20116;-58
2022/08/01 13:24:24;;;;;;;13.73;5.38;;;;;;;;;;3332189;42;20088;-58
2022/08/01 13:26:53;;;;;;;10.20;5.20;;;;;;;;;;3340377;42;20096;-58
2022/08/01 13:29:38;;;;;;;9.23;4.75;;;;;;;;;;3332821;42;20085;-58
2022/08/01 13:32:17;;;;;;;12.07;4.90;;;;;;;;;;3332839;42;20514;-59
2022/08/01 13:34:44;;;;;;;9.85;4.22;;;;;;;;;;3339745;42;20089;-56
2022/08/01 13:37:10;;;;;;;9.30;4.80;;;;;;;;;;3325385;42;20108;-58
2022/08/01 13:39:43;;;;;;;11.63;5.00;;;;;;;;;;3325151;42;20100;-60
2022/08/01 13:42:14;;;;;;;9.45;4.60;;;;;;;;;;3326117;42;20085;-58
2022/08/01 13:44:41;;;;;;;11.10;4.63;;;;;;;;;;3332961;42;20092;-59
2022/08/01 13:47:07;;;;;;;9.75;4.80;;;;;;;;;;3346315;42;20127;-59
2022/08/01 13:49:34;;;;;;;10.02;4.63;;;;;;;;;;3340003;42;20089;-57
2022/08/01 13:52:00;;;;;;;8.80;3.97;;;;;;;;;;3332802;42;20092;-58
2022/08/01 13:54:26;;;;;;;9.98;4.57;;;;;;;;;;3339301;42;20104;-60
2022/08/01 13:56:52;;;;;;;9.55;4.40;;;;;;;;;;3340017;42;20163;-61
2022/08/01 13:59:19;;;;;;;9.60;4.60;;;;;;;;;;3332737;42;20092;-62
2022/08/01 14:01:46;;;;;;;11.95;4.30;;;;;;;;;;3330541;42;20100;-58
2022/08/01 14:04:12;;;;;;;8.70;4.10;;;;;;;;;;3336639;42;20561;-58
2022/08/01 14:06:38;;;;;;;10.32;4.05;;;;;;;;;;3338048;42;20101;-58
2022/08/01 14:09:05;;;;;;;8.75;3.97;;;;;;;;;;3329862;42;20105;-58
2022/08/01 14:11:31;;;;;;;9.05;4.20;;;;;;;;;;3325051;42;20100;-60
2022/08/01 14:13:57;;;;;;;8.60;4.18;;;;;;;;;;3325749;42;20096;-59
2022/08/01 14:16:23;;;;;;;10.03;4.30;;;;;;;;;;3327704;42;20096;-58
2022/08/01 14:18:49;;;;;;;12.05;4.90;;;;;;;;;;3331060;42;20089;-58
2022/08/01 14:21:16;;;;;;;8.80;4.10;;;;;;;;;;3328655;42;20817;-58
2022/08/01 14:23:42;;;;;;;7.97;4.05;;;;;;;;;;3317475;42;20104;-57
2022/08/01 14:26:09;;;;;;;9.35;3.95;;;;;;;;;;3331523;42;20103;-59
2022/08/01 14:28:38;;;;;;;8.03;3.80;;;;;;;;;;3330992;42;20097;-57
2022/08/01 14:31:08;;;;;;;9.65;3.90;;;;;;;;;;3332250;42;20093;-57
2022/08/01 14:33:34;;;;;;;9.00;4.07;;;;;;;;;;3324522;42;20132;-56
2022/08/01 14:36:00;;;;;;;9.27;4.32;;;;;;;;;;3332400;42;20089;-57
2022/08/01 14:38:27;;;;;;;8.25;4.07;;;;;;;;;;3330908;42;20120;-60